createdAt,value
2023-01-09T00:00:05.767Z,99.99
2023-01-09T00:01:05.659Z,99.99
2023-01-09T00:02:05.706Z,99.99
2023-01-09T00:03:05.631Z,99.99
2023-01-09T00:04:05.736Z,99.99
2023-01-09T00:05:05.597Z,99.99
2023-01-09T00:06:05.598Z,99.99
2023-01-09T00:07:05.569Z,99.99
2023-01-09T00:08:05.590Z,99.99
2023-01-09T00:09:05.576Z,99.99
2023-01-09T00:10:05.554Z,99.99
2023-01-09T00:11:05.521Z,99.99
2023-01-09T00:12:05.556Z,99.99
2023-01-09T00:13:05.496Z,99.99
2023-01-09T00:14:05.513Z,99.99
2023-01-09T00:15:05.513Z,99.99
2023-01-09T00:16:05.473Z,99.99
2023-01-09T00:17:05.526Z,99.99
2023-01-09T00:18:05.478Z,99.99
2023-01-09T00:19:05.420Z,99.99
2023-01-09T00:20:05.439Z,99.99
2023-01-09T00:21:05.423Z,99.99
2023-01-09T00:22:05.407Z,99.99
2023-01-09T00:23:05.367Z,99.99
2023-01-09T00:24:05.386Z,99.99
2023-01-09T00:25:05.344Z,99.99
2023-01-09T00:26:05.378Z,99.99
2023-01-09T00:27:05.317Z,99.99
2023-01-09T00:28:05.355Z,99.99
2023-01-09T00:29:05.285Z,99.99
2023-01-09T00:30:05.315Z,99.99
2023-01-09T00:31:05.387Z,99.99
2023-01-09T00:32:05.303Z,99.99
2023-01-09T00:33:05.243Z,99.99
2023-01-09T00:34:05.266Z,99.99
2023-01-09T00:35:05.216Z,99.99
2023-01-09T00:36:05.213Z,99.99
2023-01-09T00:37:05.180Z,99.99
2023-01-09T00:38:05.231Z,99.99
2023-01-09T00:39:05.163Z,99.99
2023-01-09T00:40:05.188Z,99.99
2023-01-09T00:41:05.152Z,99.99
2023-01-09T00:42:05.178Z,99.99
2023-01-09T00:43:05.112Z,99.99
2023-01-09T00:44:05.148Z,99.99
2023-01-09T00:45:05.086Z,99.99
2023-01-09T00:46:05.152Z,99.99
2023-01-09T00:47:05.075Z,99.99
2023-01-09T00:48:05.080Z,99.99
2023-01-09T00:49:05.033Z,99.99
2023-01-09T00:50:05.039Z,99.99
2023-01-09T00:51:05.003Z,99.99
2023-01-09T00:52:05.024Z,99.99
2023-01-09T00:53:05.001Z,99.99
2023-01-09T00:54:04.996Z,99.99
2023-01-09T00:55:04.980Z,99.99
2023-01-09T00:56:04.980Z,99.99
2023-01-09T00:57:04.940Z,99.99
2023-01-09T00:58:04.942Z,99.99
2023-01-09T00:59:04.910Z,99.99
2023-01-09T01:00:04.911Z,99.99
2023-01-09T01:01:05.051Z,99.99
2023-01-09T01:02:05.019Z,99.99
2023-01-09T01:03:04.897Z,99.99
2023-01-09T01:04:04.881Z,99.99
2023-01-09T01:05:04.843Z,99.99
2023-01-09T01:06:04.857Z,99.99
2023-01-09T01:07:04.828Z,99.99
2023-01-09T01:08:04.806Z,99.99
2023-01-09T01:09:04.777Z,99.99
2023-01-09T01:10:04.790Z,99.99
2023-01-09T01:11:04.743Z,99.99
2023-01-09T01:12:04.780Z,99.99
2023-01-09T01:13:04.721Z,99.99
2023-01-09T01:14:04.745Z,99.99
2023-01-09T01:15:04.697Z,99.99
2023-01-09T01:16:04.701Z,99.99
2023-01-09T01:17:04.666Z,99.99
2023-01-09T01:18:04.698Z,99.99
2023-01-09T01:19:04.637Z,99.99
2023-01-09T01:20:04.672Z,99.99
2023-01-09T01:21:04.622Z,99.99
2023-01-09T01:22:04.663Z,99.99
2023-01-09T01:23:04.615Z,99.99
2023-01-09T01:24:04.607Z,99.99
2023-01-09T01:25:04.566Z,99.99
2023-01-09T01:26:04.582Z,99.99
2023-01-09T01:27:04.545Z,99.73
2023-01-09T01:28:04.584Z,99.63
2023-01-09T01:29:04.517Z,99.63
2023-01-09T01:30:04.521Z,99.52
2023-01-09T01:31:04.552Z,99.27
2023-01-09T01:32:04.505Z,99.07
2023-01-09T01:33:04.462Z,98.86
2023-01-09T01:34:04.507Z,98.76
2023-01-09T01:35:04.439Z,98.66
2023-01-09T01:36:04.464Z,98.14
2023-01-09T01:37:04.409Z,97.89
2023-01-09T01:38:04.424Z,97.58
2023-01-09T01:39:04.426Z,97.48
2023-01-09T01:40:04.394Z,97.48
2023-01-09T01:41:04.411Z,97.38
2023-01-09T01:42:04.380Z,97.38
2023-01-09T01:43:04.326Z,96.86
2023-01-09T01:44:04.339Z,96.55
2023-01-09T01:45:04.335Z,96.55
2023-01-09T01:46:04.385Z,96.66
2023-01-09T01:47:04.284Z,96.75
2023-01-09T01:48:04.286Z,96.86
2023-01-09T01:49:04.254Z,96.86
2023-01-09T01:50:04.294Z,96.96
2023-01-09T01:51:04.231Z,97.17
2023-01-09T01:52:04.250Z,97.27
2023-01-09T01:53:04.235Z,97.06
2023-01-09T01:54:04.201Z,96.66
2023-01-09T01:55:04.180Z,96.55
2023-01-09T01:56:04.185Z,96.55
2023-01-09T01:57:04.147Z,96.66
2023-01-09T01:58:04.161Z,96.75
2023-01-09T01:59:04.144Z,96.86
2023-01-09T02:00:04.139Z,96.96
2023-01-09T02:01:04.230Z,96.96
2023-01-09T02:02:04.283Z,96.66
2023-01-09T02:03:04.150Z,96.75
2023-01-09T02:04:04.094Z,96.75
2023-01-09T02:05:04.076Z,96.75
2023-01-09T02:06:04.065Z,96.86
2023-01-09T02:07:04.029Z,96.66
2023-01-09T02:08:04.022Z,96.86
2023-01-09T02:09:04.007Z,96.96
2023-01-09T02:10:04.019Z,97.17
2023-01-09T02:11:04.001Z,97.06
2023-01-09T02:12:03.971Z,97.06
2023-01-09T02:13:03.944Z,96.96
2023-01-09T02:14:03.973Z,97.06
2023-01-09T02:15:03.933Z,96.96
2023-01-09T02:16:03.998Z,96.75
2023-01-09T02:17:03.918Z,96.75
2023-01-09T02:18:03.908Z,96.66
2023-01-09T02:19:03.887Z,96.66
2023-01-09T02:20:03.875Z,96.75
2023-01-09T02:21:03.837Z,96.45
2023-01-09T02:22:03.847Z,96.34
2023-01-09T02:23:03.816Z,96.14
2023-01-09T02:24:03.835Z,96.03
2023-01-09T02:25:03.816Z,96.24
2023-01-09T02:26:03.804Z,96.14
2023-01-09T02:27:03.769Z,96.03
2023-01-09T02:28:03.761Z,96.03
2023-01-09T02:29:03.758Z,96.03
2023-01-09T02:30:03.748Z,96.14
2023-01-09T02:31:03.727Z,96.03
2023-01-09T02:32:03.738Z,95.93
2023-01-09T02:33:03.683Z,95.62
2023-01-09T02:34:03.689Z,95.83
2023-01-09T02:35:03.688Z,95.83
2023-01-09T02:36:03.678Z,95.93
2023-01-09T02:37:03.643Z,95.93
2023-01-09T02:38:03.656Z,95.73
2023-01-09T02:39:03.606Z,95.62
2023-01-09T02:40:03.656Z,95.21
2023-01-09T02:41:03.606Z,94.18
2023-01-09T02:42:03.594Z,94.38
2023-01-09T02:43:03.583Z,94.59
2023-01-09T02:44:03.572Z,94.70
2023-01-09T02:45:03.542Z,94.59
2023-01-09T02:46:03.642Z,94.70
2023-01-09T02:47:03.513Z,94.90
2023-01-09T02:48:03.552Z,95.21
2023-01-09T02:49:03.482Z,95.31
2023-01-09T02:50:03.510Z,95.31
2023-01-09T02:51:03.454Z,94.80
2023-01-09T02:52:03.471Z,95.00
2023-01-09T02:53:03.431Z,94.80
2023-01-09T02:54:03.470Z,93.98
2023-01-09T02:55:03.436Z,92.63
2023-01-09T02:56:03.403Z,91.50
2023-01-09T02:57:03.376Z,91.60
2023-01-09T02:58:03.398Z,91.30
2023-01-09T02:59:03.367Z,91.60
2023-01-09T03:00:03.392Z,90.37
2023-01-09T03:01:03.399Z,91.09
2023-01-09T03:02:03.585Z,90.99
2023-01-09T03:03:03.363Z,90.99
2023-01-09T03:04:03.341Z,90.16
2023-01-09T03:05:03.280Z,90.78
2023-01-09T03:06:03.290Z,90.51
2023-01-09T03:07:03.244Z,89.79
2023-01-09T03:08:03.258Z,90.16
2023-01-09T03:09:03.222Z,90.51
2023-01-09T03:10:03.283Z,90.41
2023-01-09T03:11:03.210Z,90.61
2023-01-09T03:12:03.229Z,91.03
2023-01-09T03:13:03.176Z,91.54
2023-01-09T03:14:03.187Z,91.96
2023-01-09T03:15:03.169Z,92.47
2023-01-09T03:16:03.252Z,92.88
2023-01-09T03:17:03.131Z,93.30
2023-01-09T03:18:03.133Z,93.60
2023-01-09T03:19:03.096Z,94.12
2023-01-09T03:20:03.098Z,94.53
2023-01-09T03:21:03.129Z,94.74
2023-01-09T03:22:03.063Z,95.05
2023-01-09T03:23:03.054Z,95.46
2023-01-09T03:24:03.056Z,95.77
2023-01-09T03:25:03.038Z,95.46
2023-01-09T03:26:03.044Z,95.25
2023-01-09T03:27:03.022Z,94.99
2023-01-09T03:28:02.985Z,94.47
2023-01-09T03:29:02.996Z,94.57
2023-01-09T03:30:02.985Z,93.75
2023-01-09T03:31:02.970Z,93.03
2023-01-09T03:32:02.928Z,93.65
2023-01-09T03:33:02.934Z,93.65
2023-01-09T03:34:02.914Z,93.13
2023-01-09T03:35:02.921Z,92.31
2023-01-09T03:36:02.911Z,91.94
2023-01-09T03:37:02.876Z,91.73
2023-01-09T03:38:02.844Z,91.73
2023-01-09T03:39:02.855Z,92.25
2023-01-09T03:40:02.820Z,92.04
2023-01-09T03:41:02.848Z,91.83
2023-01-09T03:42:02.836Z,91.63
2023-01-09T03:43:02.802Z,92.35
2023-01-09T03:44:02.794Z,92.55
2023-01-09T03:45:02.785Z,93.28
2023-01-09T03:46:02.787Z,92.35
2023-01-09T03:47:02.772Z,91.83
2023-01-09T03:48:02.770Z,92.66
2023-01-09T03:49:02.734Z,92.55
2023-01-09T03:50:09.736Z,92.97
2023-01-09T03:51:02.693Z,93.38
2023-01-09T03:52:02.683Z,93.49
2023-01-09T03:53:02.713Z,93.28
2023-01-09T03:54:02.650Z,94.21
2023-01-09T03:55:02.642Z,94.42
2023-01-09T03:56:02.611Z,94.42
2023-01-09T03:57:02.631Z,94.62
2023-01-09T03:58:02.585Z,94.52
2023-01-09T03:59:02.611Z,93.90
2023-01-09T04:00:02.560Z,94.21
2023-01-09T04:01:02.722Z,94.62
2023-01-09T04:02:04.064Z,94.72
2023-01-09T04:03:02.554Z,94.93
2023-01-09T04:04:02.596Z,94.93
2023-01-09T04:05:02.517Z,95.03
2023-01-09T04:06:02.478Z,94.82
2023-01-09T04:07:02.514Z,94.52
2023-01-09T04:08:02.458Z,94.42
2023-01-09T04:09:02.496Z,94.42
2023-01-09T04:10:02.426Z,94.10
2023-01-09T04:11:02.458Z,93.79
2023-01-09T04:12:02.404Z,93.49
2023-01-09T04:13:02.416Z,93.38
2023-01-09T04:14:02.408Z,93.38
2023-01-09T04:15:02.389Z,93.59
2023-01-09T04:16:02.449Z,93.69
2023-01-09T04:17:02.373Z,93.32
2023-01-09T04:18:02.327Z,93.32
2023-01-09T04:19:02.328Z,93.43
2023-01-09T04:20:02.305Z,93.43
2023-01-09T04:21:02.310Z,93.63
2023-01-09T04:22:02.299Z,93.12
2023-01-09T04:23:02.286Z,93.12
2023-01-09T04:24:02.250Z,92.50
2023-01-09T04:25:02.269Z,92.60
2023-01-09T04:26:02.223Z,92.60
2023-01-09T04:27:02.240Z,92.40
2023-01-09T04:28:02.221Z,92.19
2023-01-09T04:29:02.237Z,92.08
2023-01-09T04:30:02.170Z,92.40
2023-01-09T04:31:02.196Z,92.40
2023-01-09T04:32:02.153Z,92.50
2023-01-09T04:33:02.167Z,92.50
2023-01-09T04:34:02.112Z,92.50
2023-01-09T04:35:02.140Z,92.70
2023-01-09T04:36:02.086Z,92.80
2023-01-09T04:37:02.099Z,92.50
2023-01-09T04:38:02.070Z,92.50
2023-01-09T04:39:02.090Z,92.23
2023-01-09T04:40:02.051Z,92.29
2023-01-09T04:41:02.079Z,92.19
2023-01-09T04:42:02.009Z,91.56
2023-01-09T04:43:02.029Z,91.56
2023-01-09T04:44:01.984Z,91.67
2023-01-09T04:45:01.997Z,91.67
2023-01-09T04:46:02.115Z,90.95
2023-01-09T04:47:01.967Z,91.05
2023-01-09T04:48:01.938Z,91.05
2023-01-09T04:49:01.962Z,91.26
2023-01-09T04:50:01.908Z,91.46
2023-01-09T04:51:01.925Z,91.26
2023-01-09T04:52:01.901Z,90.74
2023-01-09T04:53:01.894Z,91.26
2023-01-09T04:54:01.872Z,90.84
2023-01-09T04:55:01.882Z,91.20
2023-01-09T04:56:01.821Z,91.50
2023-01-09T04:57:01.874Z,91.82
2023-01-09T04:58:01.818Z,91.50
2023-01-09T04:59:01.847Z,91.82
2023-01-09T05:00:01.775Z,91.50
2023-01-09T05:01:01.909Z,91.20
2023-01-09T05:02:01.925Z,90.78
2023-01-09T05:03:01.749Z,90.06
2023-01-09T05:04:01.738Z,90.47
2023-01-09T05:05:01.773Z,90.58
2023-01-09T05:06:01.696Z,90.26
2023-01-09T05:07:01.756Z,90.47
2023-01-09T05:08:01.672Z,90.78
2023-01-09T05:09:01.704Z,90.58
2023-01-09T05:10:01.670Z,89.54
2023-01-09T05:11:01.665Z,89.65
2023-01-09T05:12:01.952Z,89.95
2023-01-09T05:13:01.654Z,89.89
2023-01-09T05:14:01.593Z,89.38
2023-01-09T05:15:01.590Z,89.07
2023-01-09T05:16:01.575Z,89.28
2023-01-09T05:17:01.586Z,89.07
2023-01-09T05:18:01.586Z,89.54
2023-01-09T05:19:01.549Z,88.71
2023-01-09T05:20:01.510Z,88.71
2023-01-09T05:21:01.542Z,88.92
2023-01-09T05:22:01.493Z,89.34
2023-01-09T05:23:01.486Z,89.13
2023-01-09T05:24:01.518Z,89.38
2023-01-09T05:25:01.512Z,89.23
2023-01-09T05:26:01.441Z,89.34
2023-01-09T05:27:01.454Z,89.13
2023-01-09T05:28:01.473Z,89.54
2023-01-09T05:29:01.414Z,89.48
2023-01-09T05:30:01.411Z,89.48
2023-01-09T05:31:01.385Z,89.89
2023-01-09T05:32:01.354Z,90.10
2023-01-09T05:33:01.357Z,89.59
2023-01-09T05:34:01.329Z,89.48
2023-01-09T05:35:01.349Z,89.59
2023-01-09T05:36:01.322Z,88.96
2023-01-09T05:37:01.300Z,88.34
2023-01-09T05:38:01.301Z,88.96
2023-01-09T05:39:01.309Z,88.76
2023-01-09T05:40:01.315Z,88.45
2023-01-09T05:41:01.276Z,87.93
2023-01-09T05:42:01.244Z,88.45
2023-01-09T05:43:01.266Z,88.55
2023-01-09T05:44:01.239Z,87.73
2023-01-09T05:45:01.264Z,87.62
2023-01-09T05:46:01.218Z,87.00
2023-01-09T05:47:02.816Z,87.00
2023-01-09T05:48:01.202Z,86.69
2023-01-09T05:49:01.159Z,86.90
2023-01-09T05:50:01.129Z,86.28
2023-01-09T05:51:01.135Z,86.07
2023-01-09T05:52:01.103Z,86.18
2023-01-09T05:53:01.129Z,85.14
2023-01-09T05:54:01.099Z,83.49
2023-01-09T05:55:01.090Z,83.39
2023-01-09T05:56:01.048Z,82.04
2023-01-09T05:57:01.052Z,82.35
2023-01-09T05:58:01.038Z,82.35
2023-01-09T05:59:01.076Z,82.56
2023-01-09T06:00:01.041Z,81.94
2023-01-09T06:01:01.047Z,81.94
2023-01-09T06:02:01.025Z,82.25
2023-01-09T06:03:01.048Z,82.25
2023-01-09T06:04:00.947Z,81.42
2023-01-09T06:05:00.956Z,82.15
2023-01-09T06:06:00.936Z,82.35
2023-01-09T06:07:00.953Z,81.84
2023-01-09T06:08:00.886Z,82.25
2023-01-09T06:09:00.909Z,82.76
2023-01-09T06:10:00.882Z,82.31
2023-01-09T06:11:00.870Z,84.28
2023-01-09T06:12:00.868Z,83.28
2023-01-09T06:13:00.869Z,82.66
2023-01-09T06:14:00.814Z,83.70
2023-01-09T06:15:00.818Z,83.70
2023-01-09T06:16:00.821Z,83.07
2023-01-09T06:17:00.832Z,84.21
2023-01-09T06:18:00.761Z,83.90
2023-01-09T06:19:00.784Z,84.00
2023-01-09T06:20:00.755Z,83.70
2023-01-09T06:21:00.765Z,83.18
2023-01-09T06:22:00.726Z,82.66
2023-01-09T06:23:01.503Z,82.45
2023-01-09T06:24:00.759Z,81.84
2023-01-09T06:25:00.717Z,82.25
2023-01-09T06:26:00.653Z,81.87
2023-01-09T06:27:00.701Z,82.29
2023-01-09T06:28:02.513Z,81.98
2023-01-09T06:29:00.675Z,81.87
2023-01-09T06:30:00.633Z,81.98
2023-01-09T06:31:00.665Z,81.98
2023-01-09T06:32:00.575Z,81.67
2023-01-09T06:33:00.580Z,81.77
2023-01-09T06:34:00.556Z,81.46
2023-01-09T06:35:00.582Z,81.87
2023-01-09T06:36:00.547Z,81.35
2023-01-09T06:37:00.582Z,81.56
2023-01-09T06:38:00.512Z,81.67
2023-01-09T06:39:00.516Z,81.35
2023-01-09T06:40:00.492Z,81.35
2023-01-09T06:41:00.498Z,81.35
2023-01-09T06:42:00.475Z,82.08
2023-01-09T06:43:00.480Z,82.29
2023-01-09T06:44:00.375Z,82.39
2023-01-09T06:45:00.440Z,82.39
2023-01-09T06:46:00.392Z,82.70
2023-01-09T06:47:00.363Z,82.70
2023-01-09T06:48:00.421Z,83.22
2023-01-09T06:49:00.413Z,83.63
2023-01-09T06:50:00.317Z,83.63
2023-01-09T06:51:00.300Z,83.73
2023-01-09T06:52:00.287Z,83.73
2023-01-09T06:53:00.282Z,83.42
2023-01-09T06:54:00.275Z,84.05
2023-01-09T06:55:00.276Z,83.84
2023-01-09T06:56:00.230Z,83.32
2023-01-09T06:57:00.267Z,83.42
2023-01-09T06:58:00.195Z,83.94
2023-01-09T06:59:00.226Z,83.63
2023-01-09T07:00:00.220Z,83.94
2023-01-09T07:01:00.390Z,83.84
2023-01-09T07:02:00.255Z,84.25
2023-01-09T07:03:00.149Z,84.36
2023-01-09T07:04:00.205Z,84.36
2023-01-09T07:05:00.178Z,84.77
2023-01-09T07:06:00.111Z,86.79
2023-01-09T07:07:00.101Z,85.24
2023-01-09T07:08:00.078Z,85.14
2023-01-09T07:09:00.112Z,85.35
2023-01-09T07:10:00.042Z,85.66
2023-01-09T07:11:00.114Z,85.55
2023-01-09T07:12:00.030Z,85.60
2023-01-09T07:13:00.028Z,85.97
2023-01-09T07:14:00.007Z,86.28
2023-01-09T07:15:00.014Z,86.38
2023-01-09T07:15:59.985Z,86.38
2023-01-09T07:16:59.998Z,86.83
2023-01-09T07:17:59.988Z,86.83
2023-01-09T07:18:59.956Z,87.25
2023-01-09T07:19:59.917Z,87.66
2023-01-09T07:20:59.928Z,87.76
2023-01-09T07:21:59.925Z,88.18
2023-01-09T07:22:59.893Z,87.76
2023-01-09T07:23:59.918Z,87.97
2023-01-09T07:24:59.872Z,88.07
2023-01-09T07:25:59.841Z,88.18
2023-01-09T07:26:59.866Z,88.49
2023-01-09T07:27:59.841Z,87.76
2023-01-09T07:28:59.846Z,87.46
2023-01-09T07:29:59.790Z,87.56
2023-01-09T07:30:59.869Z,88.07
2023-01-09T07:31:59.764Z,87.97
2023-01-09T07:33:00.992Z,87.46
2023-01-09T07:33:59.757Z,87.46
2023-01-09T07:34:59.728Z,87.15
2023-01-09T07:35:59.726Z,87.25
2023-01-09T07:36:59.696Z,87.46
2023-01-09T07:37:59.739Z,87.25
2023-01-09T07:38:59.698Z,87.25
2023-01-09T07:39:59.691Z,87.35
2023-01-09T07:40:59.646Z,87.35
2023-01-09T07:41:59.653Z,87.56
2023-01-09T07:42:59.622Z,87.62
2023-01-09T07:43:59.623Z,87.62
2023-01-09T07:44:59.632Z,87.66
2023-01-09T07:45:59.654Z,87.52
2023-01-09T07:46:59.584Z,87.52
2023-01-09T07:47:59.588Z,87.41
2023-01-09T07:48:59.550Z,87.41
2023-01-09T07:49:59.580Z,87.62
2023-01-09T07:50:59.550Z,87.52
2023-01-09T07:51:59.546Z,86.79
2023-01-09T07:52:59.491Z,86.38
2023-01-09T07:53:59.517Z,86.90
2023-01-09T07:54:59.472Z,86.79
2023-01-09T07:55:59.478Z,87.00
2023-01-09T07:56:59.474Z,86.90
2023-01-09T07:57:59.449Z,85.55
2023-01-09T07:58:59.415Z,85.66
2023-01-09T07:59:59.448Z,85.35
2023-01-09T08:00:59.441Z,84.94
2023-01-09T08:01:59.510Z,85.35
2023-01-09T08:02:59.470Z,84.83
2023-01-09T08:03:59.374Z,84.94
2023-01-09T08:04:59.365Z,85.14
2023-01-09T08:05:59.364Z,84.63
2023-01-09T08:06:59.322Z,83.70
2023-01-09T08:07:59.359Z,83.39
2023-01-09T08:08:59.296Z,83.18
2023-01-09T08:09:59.299Z,82.97
2023-01-09T08:10:59.282Z,82.66
2023-01-09T08:11:59.293Z,82.45
2023-01-09T08:12:59.248Z,81.73
2023-01-09T08:13:59.282Z,81.73
2023-01-09T08:14:59.228Z,81.84
2023-01-09T08:15:59.313Z,81.52
2023-01-09T08:16:59.203Z,81.63
2023-01-09T08:17:59.213Z,80.90
2023-01-09T08:18:59.171Z,81.01
2023-01-09T08:19:59.222Z,80.39
2023-01-09T08:20:59.135Z,80.39
2023-01-09T08:21:59.171Z,79.97
2023-01-09T08:22:59.132Z,80.08
2023-01-09T08:23:59.134Z,80.08
2023-01-09T08:24:59.102Z,80.08
2023-01-09T08:25:59.154Z,79.77
2023-01-09T08:26:59.069Z,79.32
2023-01-09T08:27:59.085Z,79.11
2023-01-09T08:28:59.031Z,78.08
2023-01-09T08:29:59.039Z,78.70
2023-01-09T08:30:59.009Z,78.39
2023-01-09T08:31:59.059Z,78.28
2023-01-09T08:32:58.990Z,78.08
2023-01-09T08:33:59.012Z,77.46
2023-01-09T08:34:58.988Z,77.04
2023-01-09T08:35:59.026Z,77.46
2023-01-09T08:36:58.937Z,77.77
2023-01-09T08:37:58.990Z,77.77
2023-01-09T08:38:58.908Z,77.25
2023-01-09T08:39:58.928Z,76.84
2023-01-09T08:40:58.874Z,76.84
2023-01-09T08:41:58.942Z,76.94
2023-01-09T08:42:58.855Z,76.64
2023-01-09T08:43:58.885Z,76.43
2023-01-09T08:44:58.839Z,76.84
2023-01-09T08:45:58.842Z,76.43
2023-01-09T08:46:58.830Z,76.22
2023-01-09T08:47:58.823Z,76.50
2023-01-09T08:48:58.784Z,77.63
2023-01-09T08:49:58.781Z,77.73
2023-01-09T08:50:58.748Z,77.42
2023-01-09T08:51:58.767Z,77.53
2023-01-09T08:52:58.738Z,77.73
2023-01-09T08:53:58.745Z,77.22
2023-01-09T08:54:58.764Z,77.11
2023-01-09T08:55:58.703Z,76.29
2023-01-09T08:56:58.674Z,75.46
2023-01-09T08:57:58.705Z,75.15
2023-01-09T08:58:58.657Z,75.57
2023-01-09T08:59:58.746Z,75.26
2023-01-09T09:00:58.685Z,75.26
2023-01-09T09:01:58.861Z,75.05
2023-01-09T09:02:58.712Z,74.43
2023-01-09T09:03:58.627Z,74.63
2023-01-09T09:04:58.569Z,73.50
2023-01-09T09:05:58.575Z,73.88
2023-01-09T09:06:58.538Z,74.19
2023-01-09T09:07:58.571Z,74.71
2023-01-09T09:08:58.543Z,74.50
2023-01-09T09:09:58.532Z,73.47
2023-01-09T09:10:58.529Z,74.08
2023-01-09T09:11:58.521Z,73.68
2023-01-09T09:12:58.486Z,73.16
2023-01-09T09:13:58.484Z,72.54
2023-01-09T09:14:58.473Z,72.64
2023-01-09T09:15:58.502Z,72.95
2023-01-09T09:16:58.468Z,73.26
2023-01-09T09:17:58.552Z,73.16
2023-01-09T09:18:58.385Z,72.44
2023-01-09T09:19:58.399Z,72.13
2023-01-09T09:20:58.437Z,72.74
2023-01-09T09:21:58.422Z,72.64
2023-01-09T09:22:58.328Z,72.23
2023-01-09T09:23:58.339Z,72.64
2023-01-09T09:24:58.335Z,72.64
2023-01-09T09:25:58.472Z,72.33
2023-01-09T09:26:58.318Z,72.54
2023-01-09T09:27:58.312Z,72.85
2023-01-09T09:28:58.260Z,72.64
2023-01-09T09:29:58.330Z,73.26
2023-01-09T09:30:58.272Z,72.64
2023-01-09T09:32:00.758Z,71.51
2023-01-09T09:32:58.197Z,72.23
2023-01-09T09:33:58.288Z,72.33
2023-01-09T09:34:58.165Z,72.44
2023-01-09T09:35:58.203Z,72.23
2023-01-09T09:36:58.235Z,71.92
2023-01-09T09:37:58.183Z,71.71
2023-01-09T09:38:58.124Z,71.51
2023-01-09T09:40:01.445Z,71.30
2023-01-09T09:40:59.104Z,71.92
2023-01-09T09:41:58.162Z,71.51
2023-01-09T09:42:58.114Z,72.02
2023-01-09T09:43:58.077Z,72.13
2023-01-09T09:44:58.098Z,72.09
2023-01-09T09:45:58.111Z,72.54
2023-01-09T09:46:58.024Z,72.02
2023-01-09T09:47:58.048Z,72.09
2023-01-09T09:48:58.030Z,72.09
2023-01-09T09:49:58.068Z,71.58
2023-01-09T09:51:05.052Z,72.19
2023-01-09T09:51:57.972Z,72.40
2023-01-09T09:52:57.937Z,71.26
2023-01-09T09:53:57.965Z,71.16
2023-01-09T09:54:57.914Z,71.37
2023-01-09T09:55:57.943Z,72.30
2023-01-09T09:56:57.890Z,71.99
2023-01-09T09:57:57.889Z,71.78
2023-01-09T09:58:57.889Z,72.19
2023-01-09T09:59:57.879Z,71.78
2023-01-09T10:00:57.831Z,72.61
2023-01-09T10:01:57.856Z,71.89
2023-01-09T10:02:57.818Z,71.58
2023-01-09T10:03:57.888Z,72.09
2023-01-09T10:04:57.779Z,71.78
2023-01-09T10:05:57.811Z,71.47
2023-01-09T10:06:57.757Z,71.58
2023-01-09T10:08:01.280Z,72.37
2023-01-09T10:08:58.757Z,71.75
2023-01-09T10:09:57.771Z,71.23
2023-01-09T10:10:57.707Z,71.55
2023-01-09T10:11:57.728Z,72.27
2023-01-09T10:12:57.675Z,72.47
2023-01-09T10:13:57.706Z,72.06
2023-01-09T10:14:57.666Z,71.55
2023-01-09T10:15:57.702Z,72.37
2023-01-09T10:16:57.634Z,71.95
2023-01-09T10:17:57.636Z,71.44
2023-01-09T10:18:57.600Z,71.20
2023-01-09T10:19:57.649Z,71.44
2023-01-09T10:20:57.579Z,71.82
2023-01-09T10:21:57.647Z,70.79
2023-01-09T10:22:57.548Z,70.07
2023-01-09T10:23:57.565Z,70.17
2023-01-09T10:24:57.554Z,70.79
2023-01-09T10:25:57.566Z,69.76
2023-01-09T10:26:57.492Z,70.28
2023-01-09T10:27:57.496Z,70.48
2023-01-09T10:28:57.467Z,71.30
2023-01-09T10:29:57.467Z,70.48
2023-01-09T10:30:57.446Z,70.28
2023-01-09T10:31:57.501Z,70.17
2023-01-09T10:32:57.414Z,70.37
2023-01-09T10:33:57.424Z,70.17
2023-01-09T10:34:57.417Z,70.28
2023-01-09T10:35:57.437Z,70.89
2023-01-09T10:36:57.428Z,70.86
2023-01-09T10:37:57.404Z,71.06
2023-01-09T10:38:57.340Z,70.14
2023-01-09T10:39:57.371Z,70.34
2023-01-09T10:41:01.492Z,69.31
2023-01-09T10:41:57.397Z,69.21
2023-01-09T10:42:57.310Z,69.21
2023-01-09T10:43:57.298Z,69.21
2023-01-09T10:44:57.268Z,69.93
2023-01-09T10:45:57.278Z,69.93
2023-01-09T10:46:57.313Z,69.62
2023-01-09T10:47:57.286Z,69.42
2023-01-09T10:48:57.217Z,69.21
2023-01-09T10:49:57.238Z,69.11
2023-01-09T10:50:57.193Z,69.73
2023-01-09T10:51:57.198Z,69.31
2023-01-09T10:52:57.193Z,69.73
2023-01-09T10:53:57.165Z,70.14
2023-01-09T10:54:57.141Z,69.93
2023-01-09T10:55:57.146Z,69.73
2023-01-09T10:56:57.109Z,69.31
2023-01-09T10:57:57.199Z,70.04
2023-01-09T10:58:57.079Z,69.62
2023-01-09T10:59:57.126Z,69.52
2023-01-09T11:00:57.062Z,68.80
2023-01-09T11:01:57.101Z,68.80
2023-01-09T11:02:57.028Z,69.62
2023-01-09T11:03:57.067Z,69.83
2023-01-09T11:04:57.021Z,69.42
2023-01-09T11:05:57.018Z,69.11
2023-01-09T11:06:56.977Z,69.73
2023-01-09T11:07:57.003Z,69.11
2023-01-09T11:08:56.993Z,69.52
2023-01-09T11:09:56.966Z,69.01
2023-01-09T11:10:56.930Z,68.90
2023-01-09T11:11:56.935Z,69.11
2023-01-09T11:12:56.917Z,69.83
2023-01-09T11:13:56.943Z,69.83
2023-01-09T11:14:56.880Z,69.31
2023-01-09T11:15:56.898Z,69.11
2023-01-09T11:16:56.851Z,69.28
2023-01-09T11:17:56.863Z,69.59
2023-01-09T11:18:56.821Z,69.49
2023-01-09T11:19:56.870Z,70.52
2023-01-09T11:20:56.829Z,69.18
2023-01-09T11:21:56.832Z,69.59
2023-01-09T11:22:56.768Z,68.77
2023-01-09T11:23:56.792Z,68.46
2023-01-09T11:24:56.740Z,68.35
2023-01-09T11:25:56.782Z,68.25
2023-01-09T11:26:56.721Z,68.63
2023-01-09T11:27:56.736Z,68.53
2023-01-09T11:28:56.696Z,67.94
2023-01-09T11:29:56.755Z,67.74
2023-01-09T11:30:56.662Z,68.66
2023-01-09T11:31:56.716Z,68.56
2023-01-09T11:32:56.658Z,68.77
2023-01-09T11:33:56.663Z,68.70
2023-01-09T11:34:56.616Z,68.46
2023-01-09T11:35:56.641Z,68.25
2023-01-09T11:36:56.631Z,68.25
2023-01-09T11:37:56.629Z,67.74
2023-01-09T11:38:56.587Z,67.84
2023-01-09T11:39:56.631Z,67.84
2023-01-09T11:40:56.553Z,67.94
2023-01-09T11:41:56.537Z,68.35
2023-01-09T11:42:56.536Z,68.66
2023-01-09T11:43:56.533Z,68.98
2023-01-09T11:44:56.486Z,68.98
2023-01-09T11:46:01.159Z,68.56
2023-01-09T11:46:57.507Z,69.18
2023-01-09T11:47:56.452Z,68.15
2023-01-09T11:48:56.465Z,68.66
2023-01-09T11:49:56.415Z,67.94
2023-01-09T11:50:56.455Z,68.56
2023-01-09T11:51:56.394Z,68.56
2023-01-09T11:52:56.423Z,68.35
2023-01-09T11:53:56.391Z,68.66
2023-01-09T11:54:56.371Z,68.66
2023-01-09T11:55:56.344Z,68.87
2023-01-09T11:56:56.391Z,69.07
2023-01-09T11:57:56.318Z,69.28
2023-01-09T11:58:56.347Z,69.38
2023-01-09T11:59:56.291Z,69.11
2023-01-09T12:00:56.289Z,69.42
2023-01-09T12:01:56.294Z,70.34
2023-01-09T12:02:56.371Z,70.86
2023-01-09T12:03:56.243Z,70.45
2023-01-09T12:04:56.315Z,70.65
2023-01-09T12:05:56.222Z,70.65
2023-01-09T12:06:56.258Z,70.76
2023-01-09T12:07:56.355Z,71.06
2023-01-09T12:08:56.195Z,71.37
2023-01-09T12:09:56.169Z,71.06
2023-01-09T12:10:56.174Z,70.72
2023-01-09T12:11:56.185Z,70.00
2023-01-09T12:12:56.135Z,70.62
2023-01-09T12:13:56.103Z,70.31
2023-01-09T12:14:56.133Z,69.79
2023-01-09T12:15:56.081Z,70.52
2023-01-09T12:16:56.105Z,69.70
2023-01-09T12:17:56.088Z,68.98
2023-01-09T12:18:56.084Z,69.49
2023-01-09T12:19:56.058Z,68.87
2023-01-09T12:20:56.049Z,69.04
2023-01-09T12:21:56.041Z,69.15
2023-01-09T12:22:56.051Z,69.35
2023-01-09T12:23:55.978Z,69.15
2023-01-09T12:24:56.003Z,69.12
2023-01-09T12:25:55.956Z,68.60
2023-01-09T12:26:55.958Z,68.26
2023-01-09T12:27:55.947Z,68.40
2023-01-09T12:28:55.945Z,69.12
2023-01-09T12:29:55.903Z,68.91
2023-01-09T12:30:55.934Z,68.70
2023-01-09T12:31:55.973Z,69.32
2023-01-09T12:32:55.882Z,70.07
2023-01-09T12:33:55.858Z,71.31
2023-01-09T12:34:55.861Z,72.24
2023-01-09T12:35:55.823Z,73.57
2023-01-09T12:36:55.903Z,75.46
2023-01-09T12:37:55.820Z,76.59
2023-01-09T12:38:55.812Z,76.70
2023-01-09T12:39:55.770Z,76.49
2023-01-09T12:40:55.777Z,77.00
2023-01-09T12:41:55.751Z,77.35
2023-01-09T12:42:55.790Z,78.17
2023-01-09T12:43:55.752Z,78.41
2023-01-09T12:44:55.746Z,78.93
2023-01-09T12:45:55.774Z,79.44
2023-01-09T12:46:55.697Z,79.34
2023-01-09T12:47:55.706Z,79.03
2023-01-09T12:48:55.704Z,79.75
2023-01-09T12:49:55.645Z,80.02
2023-01-09T12:50:55.644Z,79.20
2023-01-09T12:51:55.620Z,78.79